Time;durP1;ratioP1;P1;durP2;ratioP2;P2;SDS_P1;SDS_P2;PMS_P1;PMS_P2;Temp;Humidity;BMP_temperature;BMP_pressure;BME280_temperature;BME280_humidity;BME280_pressure;Samples;Min_cycle;Max_cycle;Signal;HPM_P1;HPM_P2
2021/07/14 00:02:16;;;;;;;;;;;;;;;;;;5042783;28;1175;-50
2021/07/14 00:04:41;;;;;;;;;;;;;;;;;;5036741;28;1902;-51
2021/07/14 00:07:06;;;;;;;;;;;;;;;;;;5043566;28;1227;-51
2021/07/14 00:09:32;;;;;;;;;;;;;;;;;;5039639;28;1537;-50
2021/07/14 00:11:59;;;;;;;;;;;;;;;;;;5043689;28;1251;-50
2021/07/14 00:22:32;;;;;;;;;;;;;;;;;;5040490;28;1856;-51
2021/07/14 00:24:58;;;;;;;;;;;;;;;;;;5039729;28;1969;-51
2021/07/14 00:27:24;;;;;;;;;;;;;;;;;;5038621;28;1364;-50
2021/07/14 00:29:56;;;;;;;;;;;;;;;;;;5041398;28;1101;-51
2021/07/14 00:32:21;;;;;;;;;;;;;;;;;;5042199;28;1033;-51
2021/07/14 00:34:47;;;;;;;;;;;;;;;;;;5041275;28;1685;-50
2021/07/14 00:37:12;;;;;;;;;;;;;;;;;;5043247;28;1172;-50
2021/07/14 00:39:37;;;;;;;;;;;;;;;;;;5041095;28;1661;-51
2021/07/14 00:42:03;;;;;;;;;;;;;;;;;;5042626;28;1152;-51
2021/07/14 00:44:29;;;;;;;;;;;;;;;;;;5042234;28;1969;-50
2021/07/14 00:46:54;;;;;;;;;;;;;;;;;;5039292;28;1532;-49
2021/07/14 00:49:19;;;;;;;;;;;;;;;;;;5019765;28;1378;-50
2021/07/14 00:51:45;;;;;;;;;;;;;;;;;;5021654;28;1173;-50
2021/07/14 00:54:10;;;;;;;;;;;;;;;;;;5039887;28;1554;-52
2021/07/14 00:56:36;;;;;;;;;;;;;;;;;;5039529;28;1613;-50
2021/07/14 00:59:01;;;;;;;;;;;;;;;;;;5034822;28;1403;-52
2021/07/14 01:01:27;;;;;;;;;;;;;;;;;;5035341;28;1365;-51
2021/07/14 01:03:55;;;;;;;;;;;;;;;;;;5033389;28;1567;-51
2021/07/14 01:06:21;;;;;;;;;;;;;;;;;;5023395;28;1902;-51
2021/07/14 01:08:58;;;;;;;;;;;;;;;;;;5020281;28;1118;-51
2021/07/14 01:11:23;;;;;;;;;;;;;;;;;;5021517;28;1626;-50
2021/07/14 01:14:00;;;;;;;;;;;;;;;;;;5020837;28;1653;-50
2021/07/14 01:16:25;;;;;;;;;;;;;;;;;;5041754;28;1202;-50
2021/07/14 01:19:16;;;;;;;;;;;;;;;;;;5041063;28;1160;-51
2021/07/14 01:21:42;;;;;;;;;;;;;;;;;;4999775;28;1573;-51
2021/07/14 01:24:08;;;;;;;;;;;;;;;;;;5027937;28;1609;-50
2021/07/14 01:26:37;;;;;;;;;;;;;;;;;;5040662;28;1938;-50
2021/07/14 01:29:06;;;;;;;;;;;;;;;;;;5040480;28;1130;-51
2021/07/14 01:31:31;;;;;;;;;;;;;;;;;;5041742;28;1243;-50
2021/07/14 01:33:57;;;;;;;;;;;;;;;;;;5037374;28;1523;-51
2021/07/14 01:36:22;;;;;;;;;;;;;;;;;;5023194;28;1164;-50
2021/07/14 01:38:48;;;;;;;;;;;;;;;;;;5020335;28;1284;-50
2021/07/14 01:41:14;;;;;;;;;;;;;;;;;;5039811;28;1768;-52
2021/07/14 01:43:39;;;;;;;;;;;;;;;;;;5039177;28;1535;-50
2021/07/14 01:46:08;;;;;;;;;;;;;;;;;;5024651;28;1914;-50
2021/07/14 01:48:37;;;;;;;;;;;;;;;;;;5021390;28;1557;-50
2021/07/14 01:51:03;;;;;;;;;;;;;;;;;;5022465;28;1346;-51
2021/07/14 01:53:28;;;;;;;;;;;;;;;;;;5040397;28;1398;-50
2021/07/14 01:55:53;;;;;;;;;;;;;;;;;;5038653;28;1638;-51
2021/07/14 01:58:19;;;;;;;;;;;;;;;;;;5022841;28;1176;-50
2021/07/14 02:00:44;;;;;;;;;;;;;;;;;;5020102;28;1486;-50
2021/07/14 02:03:54;;;;;;;;;;;;;;;;;;5038781;28;1727;-51
2021/07/14 02:06:00;;;;;;;;;;;;;;;;;;5021120;28;1967;-50
2021/07/14 02:08:26;;;;;;;;;;;;;;;;;;5039134;28;1129;-50
2021/07/14 02:10:51;;;;;;;;;;;;;;;;;;5037804;28;1613;-50
2021/07/14 02:13:17;;;;;;;;;;;;;;;;;;5023232;28;1304;-50
2021/07/14 02:15:42;;;;;;;;;;;;;;;;;;5020895;28;1105;-50
2021/07/14 02:18:11;;;;;;;;;;;;;;;;;;5022040;28;1594;-50
2021/07/14 02:20:36;;;;;;;;;;;;;;;;;;4848994;28;1162;-50
2021/07/14 02:23:04;;;;;;;;;;;;;;;;;;4942299;28;1338;-50
2021/07/14 02:25:29;;;;;;;;;;;;;;;;;;5038574;28;1914;-50
2021/07/14 02:27:55;;;;;;;;;;;;;;;;;;5040762;28;1057;-50
2021/07/14 02:30:21;;;;;;;;;;;;;;;;;;5038226;28;1358;-50
2021/07/14 02:32:49;;;;;;;;;;;;;;;;;;5021678;28;1477;-50
2021/07/14 02:35:14;;;;;;;;;;;;;;;;;;5019626;28;1750;-50
2021/07/14 02:37:46;;;;;;;;;;;;;;;;;;5039114;28;1189;-50
2021/07/14 02:40:11;;;;;;;;;;;;;;;;;;5038599;28;1591;-50
2021/07/14 02:42:37;;;;;;;;;;;;;;;;;;5039949;28;1765;-50
2021/07/14 02:45:04;;;;;;;;;;;;;;;;;;5021086;28;1918;-50
2021/07/14 02:47:30;;;;;;;;;;;;;;;;;;5019623;28;1181;-50
2021/07/14 02:49:55;;;;;;;;;;;;;;;;;;5020887;28;1490;-51
2021/07/14 02:52:24;;;;;;;;;;;;;;;;;;5040128;28;1616;-50
2021/07/14 02:54:49;;;;;;;;;;;;;;;;;;5019994;28;1767;-50
2021/07/14 02:57:14;;;;;;;;;;;;;;;;;;5035929;28;1379;-49
2021/07/14 02:59:40;;;;;;;;;;;;;;;;;;5040240;28;1333;-50
2021/07/14 03:02:05;;;;;;;;;;;;;;;;;;5037989;28;1537;-50
2021/07/14 03:04:44;;;;;;;;;;;;;;;;;;5036116;28;1985;-50
2021/07/14 03:07:09;;;;;;;;;;;;;;;;;;5021147;28;1220;-50
2021/07/14 03:09:38;;;;;;;;;;;;;;;;;;5019722;28;1555;-50
2021/07/14 03:12:07;;;;;;;;;;;;;;;;;;5019393;28;1512;-50
2021/07/14 03:14:32;;;;;;;;;;;;;;;;;;5038943;28;1382;-49
2021/07/14 03:16:57;;;;;;;;;;;;;;;;;;5021291;28;1082;-50
2021/07/14 03:19:23;;;;;;;;;;;;;;;;;;5019717;28;1583;-50
2021/07/14 03:21:48;;;;;;;;;;;;;;;;;;5018826;28;1283;-50
2021/07/14 03:24:14;;;;;;;;;;;;;;;;;;5033741;28;1625;-50
2021/07/14 03:26:39;;;;;;;;;;;;;;;;;;5020041;28;1934;-50
2021/07/14 03:29:04;;;;;;;;;;;;;;;;;;5016144;28;1397;-50
2021/07/14 03:31:30;;;;;;;;;;;;;;;;;;5040872;28;1183;-50
2021/07/14 03:33:56;;;;;;;;;;;;;;;;;;5033478;28;1700;-50
2021/07/14 03:36:22;;;;;;;;;;;;;;;;;;5021233;28;1184;-50
2021/07/14 03:38:47;;;;;;;;;;;;;;;;;;5039168;28;1140;-50
2021/07/14 03:41:12;;;;;;;;;;;;;;;;;;5019114;28;1824;-50
2021/07/14 03:43:37;;;;;;;;;;;;;;;;;;5037284;28;1553;-50
2021/07/14 03:46:02;;;;;;;;;;;;;;;;;;5036822;28;1887;-50
2021/07/14 03:48:28;;;;;;;;;;;;;;;;;;5037555;28;1266;-50
2021/07/14 03:50:55;;;;;;;;;;;;;;;;;;5040003;28;1009;-50
2021/07/14 03:53:20;;;;;;;;;;;;;;;;;;5038138;28;1310;-50
2021/07/14 03:55:48;;;;;;;;;;;;;;;;;;5015554;28;1598;-50
2021/07/14 03:58:14;;;;;;;;;;;;;;;;;;5021774;28;1189;-50
2021/07/14 04:00:39;;;;;;;;;;;;;;;;;;5020230;28;1267;-51
2021/07/14 04:03:06;;;;;;;;;;;;;;;;;;5022453;28;1460;-50
2021/07/14 04:05:31;;;;;;;;;;;;;;;;;;5042327;28;1957;-51
2021/07/14 04:07:56;;;;;;;;;;;;;;;;;;5042755;28;1108;-50
2021/07/14 04:10:21;;;;;;;;;;;;;;;;;;5022804;28;1599;-50
2021/07/14 04:12:47;;;;;;;;;;;;;;;;;;5026732;28;1315;-50
2021/07/14 04:15:12;;;;;;;;;;;;;;;;;;5023834;28;1188;-51
2021/07/14 04:17:37;;;;;;;;;;;;;;;;;;5040173;28;1484;-50
2021/07/14 04:20:03;;;;;;;;;;;;;;;;;;5040238;28;1561;-50
2021/07/14 04:22:28;;;;;;;;;;;;;;;;;;5042843;28;1184;-51
2021/07/14 04:24:53;;;;;;;;;;;;;;;;;;5041485;28;1910;-51
2021/07/14 04:27:18;;;;;;;;;;;;;;;;;;5042462;28;1243;-50
2021/07/14 04:29:43;;;;;;;;;;;;;;;;;;5042150;28;1128;-50
2021/07/14 04:32:08;;;;;;;;;;;;;;;;;;5040343;28;1476;-50
2021/07/14 04:34:34;;;;;;;;;;;;;;;;;;5040063;28;1559;-51
2021/07/14 04:36:59;;;;;;;;;;;;;;;;;;5041892;28;1219;-50
2021/07/14 04:39:24;;;;;;;;;;;;;;;;;;5039457;28;1621;-50
2021/07/14 04:41:49;;;;;;;;;;;;;;;;;;5041627;28;1239;-50
2021/07/14 04:44:28;;;;;;;;;;;;;;;;;;5041471;28;1303;-50
2021/07/14 04:46:53;;;;;;;;;;;;;;;;;;5042179;28;1969;-51
2021/07/14 04:49:18;;;;;;;;;;;;;;;;;;5040502;28;2077;-50
2021/07/14 04:51:44;;;;;;;;;;;;;;;;;;5042021;28;1220;-50
2021/07/14 04:54:09;;;;;;;;;;;;;;;;;;5039814;28;1498;-50
2021/07/14 04:56:34;;;;;;;;;;;;;;;;;;5043445;28;1188;-50
2021/07/14 04:59:00;;;;;;;;;;;;;;;;;;5041600;28;1180;-50
2021/07/14 05:01:25;;;;;;;;;;;;;;;;;;5042131;28;1524;-49
2021/07/14 05:03:50;;;;;;;;;;;;;;;;;;5040596;28;1598;-50
2021/07/14 05:06:15;;;;;;;;;;;;;;;;;;5041767;28;1902;-49
2021/07/14 05:08:41;;;;;;;;;;;;;;;;;;5040460;28;1405;-49
2021/07/14 05:11:06;;;;;;;;;;;;;;;;;;5038985;28;1660;-49
2021/07/14 05:13:31;;;;;;;;;;;;;;;;;;5041074;28;1366;-49
2021/07/14 05:15:56;;;;;;;;;;;;;;;;;;5042007;28;1440;-48
2021/07/14 05:18:22;;;;;;;;;;;;;;;;;;5042600;28;1646;-51
2021/07/14 05:20:47;;;;;;;;;;;;;;;;;;5039620;28;1350;-50
2021/07/14 05:23:12;;;;;;;;;;;;;;;;;;5041303;28;1303;-50
2021/07/14 05:25:37;;;;;;;;;;;;;;;;;;5039746;28;1902;-50
2021/07/14 05:28:03;;;;;;;;;;;;;;;;;;5042190;28;1280;-51
2021/07/14 05:30:28;;;;;;;;;;;;;;;;;;5037546;28;1531;-50
2021/07/14 05:32:53;;;;;;;;;;;;;;;;;;5039608;28;1698;-50
2021/07/14 05:35:19;;;;;;;;;;;;;;;;;;5040957;28;1742;-50
2021/07/14 05:37:44;;;;;;;;;;;;;;;;;;5041074;28;1301;-52
2021/07/14 05:40:09;;;;;;;;;;;;;;;;;;5037426;28;1550;-50
2021/07/14 05:42:34;;;;;;;;;;;;;;;;;;5040536;28;1766;-50
2021/07/14 05:45:00;;;;;;;;;;;;;;;;;;5037494;28;1942;-50
2021/07/14 05:47:25;;;;;;;;;;;;;;;;;;5042639;28;969;-50
2021/07/14 05:49:50;;;;;;;;;;;;;;;;;;5037807;28;1192;-50
2021/07/14 05:52:15;;;;;;;;;;;;;;;;;;5040239;28;1653;-51
2021/07/14 05:54:41;;;;;;;;;;;;;;;;;;5037213;28;1496;-51
2021/07/14 05:57:06;;;;;;;;;;;;;;;;;;5042357;28;1254;-50
2021/07/14 05:59:31;;;;;;;;;;;;;;;;;;5034502;28;1545;-50
2021/07/14 06:01:56;;;;;;;;;;;;;;;;;;5038297;28;1049;-51
2021/07/14 06:04:21;;;;;;;;;;;;;;;;;;5033818;28;1630;-50
2021/07/14 06:06:47;;;;;;;;;;;;;;;;;;5041334;28;1965;-51
2021/07/14 06:09:12;;;;;;;;;;;;;;;;;;5036048;28;1526;-51
2021/07/14 06:11:37;;;;;;;;;;;;;;;;;;5038029;28;1120;-51
2021/07/14 06:14:02;;;;;;;;;;;;;;;;;;5036970;28;1549;-51
2021/07/14 06:16:28;;;;;;;;;;;;;;;;;;5040726;28;1120;-50
2021/07/14 06:18:53;;;;;;;;;;;;;;;;;;5039428;28;1040;-51
2021/07/14 06:21:18;;;;;;;;;;;;;;;;;;5038160;28;1718;-50
2021/07/14 06:23:43;;;;;;;;;;;;;;;;;;5037182;28;1735;-50
2021/07/14 06:26:08;;;;;;;;;;;;;;;;;;5037664;28;1934;-51
2021/07/14 06:28:34;;;;;;;;;;;;;;;;;;5039792;28;1164;-50
2021/07/14 06:30:59;;;;;;;;;;;;;;;;;;5040901;28;1728;-50
2021/07/14 06:33:24;;;;;;;;;;;;;;;;;;5037262;28;1569;-50
2021/07/14 06:35:52;;;;;;;;;;;;;;;;;;5038378;28;1112;-54
2021/07/14 06:38:18;;;;;;;;;;;;;;;;;;5039456;28;1402;-50
2021/07/14 06:40:43;;;;;;;;;;;;;;;;;;5039217;28;1665;-50
2021/07/14 06:43:14;;;;;;;;;;;;;;;;;;5037816;28;1272;-51
2021/07/14 06:45:39;;;;;;;;;;;;;;;;;;5039564;28;1906;-51
2021/07/14 06:48:04;;;;;;;;;;;;;;;;;;5039142;28;1651;-51
2021/07/14 06:50:29;;;;;;;;;;;;;;;;;;5040609;28;1243;-51
2021/07/14 06:52:56;;;;;;;;;;;;;;;;;;5035700;28;1284;-51
2021/07/14 06:55:21;;;;;;;;;;;;;;;;;;5036973;28;1510;-51
2021/07/14 06:57:46;;;;;;;;;;;;;;;;;;5038110;28;1161;-51
2021/07/14 07:00:12;;;;;;;;;;;;;;;;;;5038487;28;1417;-52
2021/07/14 07:02:37;;;;;;;;;;;;;;;;;;5036121;28;1652;-51
2021/07/14 07:05:03;;;;;;;;;;;;;;;;;;5036194;28;1914;-51
2021/07/14 07:07:28;;;;;;;;;;;;;;;;;;5039161;28;1235;-51
2021/07/14 07:09:53;;;;;;;;;;;;;;;;;;5038564;28;1561;-50
2021/07/14 07:12:19;;;;;;;;;;;;;;;;;;5036751;28;1231;-51
2021/07/14 07:14:44;;;;;;;;;;;;;;;;;;5037115;28;1629;-49
2021/07/14 07:17:09;;;;;;;;;;;;;;;;;;5033066;28;1279;-51
2021/07/14 07:19:34;;;;;;;;;;;;;;;;;;5038037;28;1227;-51
2021/07/14 07:21:59;;;;;;;;;;;;;;;;;;5040398;28;1169;-52
2021/07/14 07:24:25;;;;;;;;;;;;;;;;;;5038681;28;1599;-51
2021/07/14 07:26:50;;;;;;;;;;;;;;;;;;5037967;28;1910;-51
2021/07/14 07:29:16;;;;;;;;;;;;;;;;;;5038149;28;1165;-51
2021/07/14 07:31:41;;;;;;;;;;;;;;;;;;5034159;28;1593;-51
2021/07/14 07:34:06;;;;;;;;;;;;;;;;;;5038887;28;1307;-51
2021/07/14 07:36:31;;;;;;;;;;;;;;;;;;5039395;28;1300;-51
2021/07/14 07:38:56;;;;;;;;;;;;;;;;;;5041793;28;1586;-51
2021/07/14 07:41:22;;;;;;;;;;;;;;;;;;5039028;28;1129;-51
2021/07/14 07:43:47;;;;;;;;;;;;;;;;;;5042588;28;1288;-51
2021/07/14 07:46:12;;;;;;;;;;;;;;;;;;5040407;28;1914;-51
2021/07/14 07:48:38;;;;;;;;;;;;;;;;;;5039026;28;1577;-51
2021/07/14 07:51:06;;;;;;;;;;;;;;;;;;5043222;28;1494;-51
2021/07/14 07:53:31;;;;;;;;;;;;;;;;;;5042558;28;1304;-51
2021/07/14 07:55:56;;;;;;;;;;;;;;;;;;5042165;28;1640;-51
2021/07/14 07:58:21;;;;;;;;;;;;;;;;;;5040530;28;1243;-51
2021/07/14 08:00:47;;;;;;;;;;;;;;;;;;5042259;28;1299;-51
2021/07/14 08:03:12;;;;;;;;;;;;;;;;;;5041875;28;1546;-52
2021/07/14 08:05:37;;;;;;;;;;;;;;;;;;5042477;28;1902;-52
2021/07/14 08:08:02;;;;;;;;;;;;;;;;;;5043289;28;1196;-51
2021/07/14 08:10:27;;;;;;;;;;;;;;;;;;5038709;28;1609;-51
2021/07/14 08:12:53;;;;;;;;;;;;;;;;;;5042128;28;1271;-51
2021/07/14 08:15:18;;;;;;;;;;;;;;;;;;5039342;28;1207;-51
2021/07/14 08:17:43;;;;;;;;;;;;;;;;;;5040886;28;1600;-51
2021/07/14 08:20:09;;;;;;;;;;;;;;;;;;5037115;28;1185;-51
2021/07/14 08:22:34;;;;;;;;;;;;;;;;;;5041119;28;1251;-51
2021/07/14 08:24:59;;;;;;;;;;;;;;;;;;5039846;28;1906;-51
2021/07/14 08:27:25;;;;;;;;;;;;;;;;;;5038224;28;1222;-50
2021/07/14 08:29:50;;;;;;;;;;;;;;;;;;5038455;28;1188;-51
2021/07/14 08:32:16;;;;;;;;;;;;;;;;;;5036862;28;1786;-50
2021/07/14 08:34:41;;;;;;;;;;;;;;;;;;5040404;28;1300;-51
2021/07/14 08:37:06;;;;;;;;;;;;;;;;;;5041513;28;1080;-50
2021/07/14 08:39:31;;;;;;;;;;;;;;;;;;5038437;28;1549;-50
2021/07/14 08:41:57;;;;;;;;;;;;;;;;;;5039241;28;1053;-51
2021/07/14 08:44:22;;;;;;;;;;;;;;;;;;5023735;28;1395;-50
2021/07/14 08:46:47;;;;;;;;;;;;;;;;;;5020363;28;1910;-50
2021/07/14 08:49:15;;;;;;;;;;;;;;;;;;5035238;28;1613;-50
2021/07/14 08:51:40;;;;;;;;;;;;;;;;;;5020120;28;1197;-51
2021/07/14 08:54:05;;;;;;;;;;;;;;;;;;5019206;28;1712;-50
2021/07/14 08:56:31;;;;;;;;;;;;;;;;;;5039420;28;1117;-50
2021/07/14 08:58:57;;;;;;;;;;;;;;;;;;5037681;28;1733;-50
2021/07/14 09:01:22;;;;;;;;;;;;;;;;;;5038664;28;1258;-50
2021/07/14 09:03:47;;;;;;;;;;;;;;;;;;5032504;28;1573;-50
2021/07/14 09:06:12;;;;;;;;;;;;;;;;;;5039103;28;1918;-48
2021/07/14 09:08:38;;;;;;;;;;;;;;;;;;5040824;28;1231;-49
2021/07/14 09:11:04;;;;;;;;;;;;;;;;;;5034489;28;1557;-49
2021/07/14 09:13:40;;;;;;;;;;;;;;;;;;5020614;28;1303;-49
2021/07/14 09:16:05;;;;;;;;;;;;;;;;;;5037296;28;1504;-54
2021/07/14 09:18:31;;;;;;;;;;;;;;;;;;5023147;28;1137;-52
2021/07/14 09:20:57;;;;;;;;;;;;;;;;;;5039470;28;1184;-50
2021/07/14 09:23:23;;;;;;;;;;;;;;;;;;5037836;28;1597;-50
2021/07/14 09:25:49;;;;;;;;;;;;;;;;;;5034664;28;1969;-50
2021/07/14 09:28:15;;;;;;;;;;;;;;;;;;5018240;28;1436;-49
2021/07/14 09:30:40;;;;;;;;;;;;;;;;;;5039031;28;1121;-49
2021/07/14 09:33:06;;;;;;;;;;;;;;;;;;5035024;28;1412;-54
2021/07/14 09:35:45;;;;;;;;;;;;;;;;;;5037342;28;1649;-49
2021/07/14 09:38:11;;;;;;;;;;;;;;;;;;5035969;28;1499;-54
2021/07/14 09:40:39;;;;;;;;;;;;;;;;;;5036216;28;1561;-53
2021/07/14 09:43:09;;;;;;;;;;;;;;;;;;5036390;28;1288;-53
2021/07/14 09:45:35;;;;;;;;;;;;;;;;;;5036636;28;1961;-52
2021/07/14 09:48:00;;;;;;;;;;;;;;;;;;5037451;28;1548;-51
2021/07/14 09:50:32;;;;;;;;;;;;;;;;;;5039998;28;1145;-52
2021/07/14 09:53:01;;;;;;;;;;;;;;;;;;5038333;28;1341;-53
2021/07/14 09:55:27;;;;;;;;;;;;;;;;;;5036532;28;1522;-53
2021/07/14 09:57:52;;;;;;;;;;;;;;;;;;5037650;28;1008;-49
2021/07/14 10:00:18;;;;;;;;;;;;;;;;;;5021734;28;1692;-52
2021/07/14 10:02:55;;;;;;;;;;;;;;;;;;5040487;28;1661;-51
2021/07/14 10:05:21;;;;;;;;;;;;;;;;;;5016756;28;1894;-52
2021/07/14 10:07:46;;;;;;;;;;;;;;;;;;5038126;28;1188;-49
2021/07/14 10:10:11;;;;;;;;;;;;;;;;;;5037529;28;1625;-50
2021/07/14 10:12:36;;;;;;;;;;;;;;;;;;5037226;28;1460;-50
2021/07/14 10:15:08;;;;;;;;;;;;;;;;;;5036676;28;1553;-50
2021/07/14 10:17:36;;;;;;;;;;;;;;;;;;5032336;28;1537;-50
2021/07/14 10:20:17;;;;;;;;;;;;;;;;;;5035512;28;1420;-50
2021/07/14 10:22:42;;;;;;;;;;;;;;;;;;5018435;28;1380;-50
2021/07/14 10:25:08;;;;;;;;;;;;;;;;;;5014462;28;1898;-49
2021/07/14 10:27:33;;;;;;;;;;;;;;;;;;5036788;28;1325;-49
2021/07/14 10:29:58;;;;;;;;;;;;;;;;;;5036616;28;1160;-52
2021/07/14 10:32:23;;;;;;;;;;;;;;;;;;5034811;28;1504;-52
2021/07/14 10:34:48;;;;;;;;;;;;;;;;;;5032103;28;1724;-52
2021/07/14 10:37:14;;;;;;;;;;;;;;;;;;5018873;28;1205;-54
2021/07/14 10:39:39;;;;;;;;;;;;;;;;;;5016970;28;1582;-51
2021/07/14 10:42:04;;;;;;;;;;;;;;;;;;5017739;28;1420;-51
2021/07/14 10:44:30;;;;;;;;;;;;;;;;;;5020602;28;1288;-50
2021/07/14 10:46:55;;;;;;;;;;;;;;;;;;5017620;28;1981;-47
2021/07/14 10:49:20;;;;;;;;;;;;;;;;;;5019253;28;1655;-51
2021/07/14 10:51:45;;;;;;;;;;;;;;;;;;5020287;28;1231;-50
2021/07/14 10:54:10;;;;;;;;;;;;;;;;;;5034215;28;1586;-54
2021/07/14 10:56:43;;;;;;;;;;;;;;;;;;5018613;28;1145;-51
2021/07/14 10:59:08;;;;;;;;;;;;;;;;;;5035442;28;1770;-52
2021/07/14 11:01:49;;;;;;;;;;;;;;;;;;5019469;28;1117;-52
2021/07/14 11:04:17;;;;;;;;;;;;;;;;;;5033392;28;1934;-51
2021/07/14 11:06:58;;;;;;;;;;;;;;;;;;5036932;28;1902;-50
2021/07/14 11:09:43;;;;;;;;;;;;;;;;;;5035140;28;1629;-51
2021/07/14 11:12:11;;;;;;;;;;;;;;;;;;5037344;28;1480;-50
2021/07/14 11:14:37;;;;;;;;;;;;;;;;;;5036507;28;1334;-51
2021/07/14 11:17:03;;;;;;;;;;;;;;;;;;5036733;28;1558;-51
2021/07/14 11:19:43;;;;;;;;;;;;;;;;;;5034752;28;1418;-51
2021/07/14 11:22:08;;;;;;;;;;;;;;;;;;5037889;28;1143;-51
2021/07/14 11:24:41;;;;;;;;;;;;;;;;;;5034308;28;1566;-51
2021/07/14 11:27:18;;;;;;;;;;;;;;;;;;5036873;28;1910;-50
2021/07/14 11:29:44;;;;;;;;;;;;;;;;;;5034334;28;1130;-50
2021/07/14 11:32:09;;;;;;;;;;;;;;;;;;5037701;28;1160;-52
2021/07/14 11:34:37;;;;;;;;;;;;;;;;;;5015228;28;1642;-50
2021/07/14 11:37:28;;;;;;;;;;;;;;;;;;5037959;28;1120;-51
2021/07/14 11:39:53;;;;;;;;;;;;;;;;;;5028433;28;1699;-50
2021/07/14 11:42:19;;;;;;;;;;;;;;;;;;5012920;28;1612;-51
2021/07/14 11:44:50;;;;;;;;;;;;;;;;;;5035381;28;1244;-51
2021/07/14 11:47:34;;;;;;;;;;;;;;;;;;5033580;28;1907;-51
2021/07/14 11:49:59;;;;;;;;;;;;;;;;;;5034199;28;1645;-51
2021/07/14 11:52:43;;;;;;;;;;;;;;;;;;5016740;28;1602;-50
2021/07/14 11:55:23;;;;;;;;;;;;;;;;;;5034837;28;1547;-51
2021/07/14 11:57:49;;;;;;;;;;;;;;;;;;5034046;28;1098;-50
2021/07/14 12:00:15;;;;;;;;;;;;;;;;;;5034945;28;1469;-50
2021/07/14 12:02:40;;;;;;;;;;;;;;;;;;5033435;28;1549;-49
2021/07/14 12:05:06;;;;;;;;;;;;;;;;;;5033622;28;1956;-51
2021/07/14 12:07:37;;;;;;;;;;;;;;;;;;5035896;28;1104;-49
2021/07/14 12:10:03;;;;;;;;;;;;;;;;;;5032730;28;1537;-49
2021/07/14 12:12:28;;;;;;;;;;;;;;;;;;5036671;28;1076;-48
2021/07/14 12:14:53;;;;;;;;;;;;;;;;;;5017763;28;1353;-49
2021/07/14 12:17:22;;;;;;;;;;;;;;;;;;5035461;28;1629;-48
2021/07/14 12:19:48;;;;;;;;;;;;;;;;;;5034480;28;1138;-48
2021/07/14 12:22:17;;;;;;;;;;;;;;;;;;5037767;28;1088;-48
2021/07/14 12:24:42;;;;;;;;;;;;;;;;;;5039305;28;1541;-48
2021/07/14 12:27:13;;;;;;;;;;;;;;;;;;5041056;28;1902;-48
2021/07/14 12:29:38;;;;;;;;;;;;;;;;;;5039638;28;1136;-49
2021/07/14 12:32:03;;;;;;;;;;;;;;;;;;5039244;28;1597;-50
2021/07/14 12:34:29;;;;;;;;;;;;;;;;;;5039282;28;1465;-48
2021/07/14 12:36:55;;;;;;;;;;;;;;;;;;5040611;28;1085;-47
2021/07/14 12:39:21;;;;;;;;;;;;;;;;;;5037682;28;1545;-48
2021/07/14 12:41:48;;;;;;;;;;;;;;;;;;5038836;28;1136;-46
2021/07/14 12:44:14;;;;;;;;;;;;;;;;;;5039586;28;1362;-48
2021/07/14 12:46:39;;;;;;;;;;;;;;;;;;5039126;28;1938;-49
2021/07/14 12:49:24;;;;;;;;;;;;;;;;;;5035045;28;1664;-50
2021/07/14 12:52:03;;;;;;;;;;;;;;;;;;5037598;28;986;-49
2021/07/14 12:54:28;;;;;;;;;;;;;;;;;;5036587;28;1588;-46
2021/07/14 12:56:53;;;;;;;;;;;;;;;;;;5040057;28;1037;-49
2021/07/14 12:59:18;;;;;;;;;;;;;;;;;;5037213;28;1515;-49
2021/07/14 13:01:44;;;;;;;;;;;;;;;;;;5037080;28;1577;-48
2021/07/14 13:04:13;;;;;;;;;;;;;;;;;;5037916;28;1379;-48
2021/07/14 13:06:38;;;;;;;;;;;;;;;;;;5021757;28;1899;-48
2021/07/14 13:09:04;;;;;;;;;;;;;;;;;;5020706;28;1582;-50
2021/07/14 13:11:30;;;;;;;;;;;;;;;;;;5028699;28;1225;-48
2021/07/14 13:13:55;;;;;;;;;;;;;;;;;;5039396;28;1444;-50
2021/07/14 13:16:24;;;;;;;;;;;;;;;;;;5021728;28;1191;-49
2021/07/14 13:18:51;;;;;;;;;;;;;;;;;;5033781;28;1592;-48
2021/07/14 13:21:20;;;;;;;;;;;;;;;;;;5037390;28;1287;-49
2021/07/14 13:23:45;;;;;;;;;;;;;;;;;;5036333;28;1294;-48
2021/07/14 13:26:17;;;;;;;;;;;;;;;;;;5038670;28;1910;-50
2021/07/14 13:28:42;;;;;;;;;;;;;;;;;;5036906;28;1350;-48
2021/07/14 13:31:08;;;;;;;;;;;;;;;;;;5038387;28;1239;-48
2021/07/14 13:33:33;;;;;;;;;;;;;;;;;;5030646;28;1640;-48
2021/07/14 13:36:02;;;;;;;;;;;;;;;;;;5038790;28;1117;-47
2021/07/14 13:38:27;;;;;;;;;;;;;;;;;;5036429;28;1433;-52
2021/07/14 13:40:59;;;;;;;;;;;;;;;;;;5037392;28;1767;-49
2021/07/14 13:43:24;;;;;;;;;;;;;;;;;;5036126;28;1304;-50
2021/07/14 13:45:49;;;;;;;;;;;;;;;;;;5018391;28;1919;-50
2021/07/14 13:48:15;;;;;;;;;;;;;;;;;;5018286;28;1397;-50
2021/07/14 13:50:50;;;;;;;;;;;;;;;;;;5019867;28;1497;-49
2021/07/14 13:53:16;;;;;;;;;;;;;;;;;;5037520;28;1397;-50
2021/07/14 13:55:41;;;;;;;;;;;;;;;;;;5014634;28;1662;-49
2021/07/14 13:58:07;;;;;;;;;;;;;;;;;;5018557;28;1309;-49
2021/07/14 14:00:32;;;;;;;;;;;;;;;;;;5039490;28;1343;-49
2021/07/14 14:02:58;;;;;;;;;;;;;;;;;;5035107;28;1650;-50
2021/07/14 14:05:23;;;;;;;;;;;;;;;;;;5033258;28;1965;-49
2021/07/14 14:07:48;;;;;;;;;;;;;;;;;;5034940;28;1466;-48
2021/07/14 14:10:14;;;;;;;;;;;;;;;;;;5033604;28;1518;-50
2021/07/14 14:12:43;;;;;;;;;;;;;;;;;;5032442;28;1425;-50
2021/07/14 14:15:11;;;;;;;;;;;;;;;;;;5031701;28;1575;-49
2021/07/14 14:17:36;;;;;;;;;;;;;;;;;;5031790;28;1605;-49
2021/07/14 14:20:02;;;;;;;;;;;;;;;;;;5033535;28;1310;-49
2021/07/14 14:22:28;;;;;;;;;;;;;;;;;;5013216;28;1530;-47
2021/07/14 14:24:53;;;;;;;;;;;;;;;;;;5033948;28;1562;-46
2021/07/14 14:27:20;;;;;;;;;;;;;;;;;;5035946;28;1907;-46
2021/07/14 14:29:45;;;;;;;;;;;;;;;;;;5037962;28;1507;-47
2021/07/14 14:32:11;;;;;;;;;;;;;;;;;;5036405;28;1602;-48
2021/07/14 14:34:36;;;;;;;;;;;;;;;;;;5014629;28;1639;-46
2021/07/14 14:37:01;;;;;;;;;;;;;;;;;;5034963;28;1619;-48
2021/07/14 14:39:26;;;;;;;;;;;;;;;;;;5035901;28;1694;-49
2021/07/14 14:41:52;;;;;;;;;;;;;;;;;;5037144;28;1042;-48
2021/07/14 14:44:17;;;;;;;;;;;;;;;;;;5037192;28;1383;-49
2021/07/14 14:46:42;;;;;;;;;;;;;;;;;;5035775;28;1964;-47
2021/07/14 14:49:07;;;;;;;;;;;;;;;;;;5036671;28;1401;-48
2021/07/14 14:51:33;;;;;;;;;;;;;;;;;;5036867;28;1167;-48
2021/07/14 14:53:58;;;;;;;;;;;;;;;;;;5017290;28;1624;-48
2021/07/14 14:56:23;;;;;;;;;;;;;;;;;;5036099;28;1019;-47
2021/07/14 14:58:49;;;;;;;;;;;;;;;;;;5036505;28;1325;-48
2021/07/14 15:01:14;;;;;;;;;;;;;;;;;;5039902;28;1009;-48
2021/07/14 15:03:39;;;;;;;;;;;;;;;;;;5000369;28;1624;-47
2021/07/14 15:06:05;;;;;;;;;;;;;;;;;;5038135;28;1982;-52
2021/07/14 15:08:30;;;;;;;;;;;;;;;;;;5033143;28;1688;-52
2021/07/14 15:10:55;;;;;;;;;;;;;;;;;;5036886;28;1590;-52
2021/07/14 15:13:20;;;;;;;;;;;;;;;;;;5034896;28;1549;-52
2021/07/14 15:15:46;;;;;;;;;;;;;;;;;;5033929;28;1558;-53
2021/07/14 15:18:11;;;;;;;;;;;;;;;;;;5017970;28;1363;-53
2021/07/14 15:20:37;;;;;;;;;;;;;;;;;;5036194;28;1156;-53
2021/07/14 15:23:05;;;;;;;;;;;;;;;;;;5031411;28;1464;-53
2021/07/14 15:28:53;;;;;;;;;;;;;;;;;;5035090;28;1325;-52
2021/07/14 15:30:53;;;;;;;;;;;;;;;;;;5021357;28;1487;-52
2021/07/14 15:33:18;;;;;;;;;;;;;;;;;;5033527;28;1668;-53
2021/07/14 15:35:43;;;;;;;;;;;;;;;;;;5035676;28;1227;-52
2021/07/14 15:38:08;;;;;;;;;;;;;;;;;;5032785;28;1581;-53
2021/07/14 15:40:33;;;;;;;;;;;;;;;;;;5035528;28;1566;-52
2021/07/14 15:42:59;;;;;;;;;;;;;;;;;;5034478;28;1444;-52
2021/07/14 15:45:24;;;;;;;;;;;;;;;;;;5036230;28;1910;-52
2021/07/14 15:47:49;;;;;;;;;;;;;;;;;;5032151;28;1613;-53
2021/07/14 15:50:14;;;;;;;;;;;;;;;;;;5037227;28;1137;-53
2021/07/14 15:52:39;;;;;;;;;;;;;;;;;;5035663;28;1382;-52
2021/07/14 15:55:05;;;;;;;;;;;;;;;;;;5034299;28;1542;-53
2021/07/14 15:57:31;;;;;;;;;;;;;;;;;;5036057;28;1585;-52
2021/07/14 15:59:56;;;;;;;;;;;;;;;;;;5039824;28;1049;-52
2021/07/14 16:02:21;;;;;;;;;;;;;;;;;;5038491;28;1449;-53
2021/07/14 16:04:46;;;;;;;;;;;;;;;;;;5034026;28;1625;-53
2021/07/14 16:07:11;;;;;;;;;;;;;;;;;;5040058;28;1902;-52
2021/07/14 16:09:37;;;;;;;;;;;;;;;;;;5035493;28;1576;-52
2021/07/14 16:12:02;;;;;;;;;;;;;;;;;;5040207;28;1129;-52
2021/07/14 16:14:27;;;;;;;;;;;;;;;;;;5038825;28;1365;-52
2021/07/14 16:16:52;;;;;;;;;;;;;;;;;;5041249;28;1041;-52
2021/07/14 16:19:17;;;;;;;;;;;;;;;;;;5039242;28;1635;-54
2021/07/14 16:21:43;;;;;;;;;;;;;;;;;;5040572;28;1239;-53
2021/07/14 16:24:08;;;;;;;;;;;;;;;;;;5028332;28;1569;-53
2021/07/14 16:26:33;;;;;;;;;;;;;;;;;;5037563;28;1894;-53
2021/07/14 16:29:00;;;;;;;;;;;;;;;;;;5037409;28;1255;-53
2021/07/14 16:31:25;;;;;;;;;;;;;;;;;;5036683;28;1665;-53
2021/07/14 16:33:50;;;;;;;;;;;;;;;;;;5037916;28;1445;-53
2021/07/14 16:36:15;;;;;;;;;;;;;;;;;;5039789;28;1133;-53
2021/07/14 16:38:40;;;;;;;;;;;;;;;;;;5036284;28;1525;-53
2021/07/14 16:41:06;;;;;;;;;;;;;;;;;;5039183;28;1617;-53
2021/07/14 16:43:31;;;;;;;;;;;;;;;;;;5033017;28;1680;-51
2021/07/14 16:45:56;;;;;;;;;;;;;;;;;;5037857;28;1969;-54
2021/07/14 16:48:22;;;;;;;;;;;;;;;;;;5035926;28;1577;-53
2021/07/14 16:50:47;;;;;;;;;;;;;;;;;;5033549;28;1514;-53
2021/07/14 16:53:12;;;;;;;;;;;;;;;;;;5038592;28;1363;-54
2021/07/14 16:55:37;;;;;;;;;;;;;;;;;;5036782;28;1592;-54
2021/07/14 16:58:03;;;;;;;;;;;;;;;;;;5038735;28;1263;-53
2021/07/14 17:00:28;;;;;;;;;;;;;;;;;;5036996;28;1325;-53
2021/07/14 17:02:53;;;;;;;;;;;;;;;;;;5037700;28;1346;-52
2021/07/14 17:05:18;;;;;;;;;;;;;;;;;;5033986;28;2062;-53
2021/07/14 17:07:43;;;;;;;;;;;;;;;;;;5040039;28;1275;-53
2021/07/14 17:10:09;;;;;;;;;;;;;;;;;;5032808;28;1656;-53